Boys Ranch, Texas
Current Conditions -  °F | °C
As of 5:55 PM on Friday 24 Oct 2014 (Local Time) from KDUX Reporting Station
NA  
Wind Chill: 85°   Ceiling: NA
Heat Index: 85°   Visibility: 10mi
Dew Point: 38°   Wind: 7mph
Humidity: 19%   Direction: 190°S
Pressure: 30.1"   Gusts: NA
Location:  35.53°N, 102.26°W
Report Text: KDUX 242255Z AUTO 19006KT 10SM 29/03 A3010 RMK AO2 T02920031
Loading
Personal Weather Stations






























Interactive Weather Map
Tropical Storm Tracking
New forecast layout! Learn more

10-Day Weather Forecast

Advertisements
Track Severe Weather on mobile